Agios Georgios I — SX9857 — position and weather

sailwx.info

Track history (hours):
 
Tides and Currents Weather Stations Pressure Air Temp Water Temp Dewpoint Dewpoint Depression Visibility Wind Speed Wind Dir Waves Ship Positions

Agios Georgios I

Last reported at 2015-Aug-28 12:33 UTC. Time now 2015-Aug-30 19:58 UTC.
Position N 37°55' E 026°29'.

Length 59 m; draft 5 m.

Type: Ship (hazmat cat B). MMSI: 239912000.

Date/timePositionNaut miles runAvg speedWind from/ knotsBaromVisibWave heightAir tempDewpointWater temp
2015-Aug-28 12:33N 37°55' E 026°29'9 8.4
2015-Aug-28 11:32N 37°50' E 026°38'32 3.5
2015-Aug-28 02:24N 37°31' E 026°05'7 7.9
2015-Aug-28 01:33N 37°30' E 025°57'7 7.4
2015-Aug-28 00:33N 37°29' E 025°48'8 7.9
2015-Aug-27 23:34N 37°27' E 025°38'8 7.6
2015-Aug-27 22:34N 37°25' E 025°29'8 7.5
2015-Aug-27 21:34N 37°23' E 025°20'7 7.2
2015-Aug-27 20:33N 37°22' E 025°11'8 7.6
2015-Aug-27 19:33N 37°25' E 025°02'5 5.0
2015-Aug-27 18:33N 37°26' E 024°56'0 0.0
2015-Aug-27 17:33N 37°26' E 024°56'0 0.0
2015-Aug-27 16:33N 37°26' E 024°56'0 0.0
2015-Aug-27 15:34N 37°26' E 024°56'0 0.0
2015-Aug-27 14:34N 37°26' E 024°56'0 0.0
2015-Aug-27 13:33N 37°26' E 024°56'0 0.0
2015-Aug-27 12:33N 37°26' E 024°56'0 0.0
2015-Aug-27 11:33N 37°26' E 024°56'0 0.0
2015-Aug-27 10:33N 37°26' E 024°56'0 0.0
2015-Aug-27 09:33N 37°26' E 024°56'3 2.5
2015-Aug-27 08:33N 37°27' E 024°59'9 8.9
2015-Aug-27 07:33N 37°32' E 025°08'1 0.7
2015-Aug-27 06:33N 37°32' E 025°09'0 0.0
2015-Aug-27 05:34N 37°32' E 025°09'0 0.0
2015-Aug-27 04:33N 37°32' E 025°09'1 0.5
2015-Aug-27 03:33N 37°32' E 025°09'7 7.3
2015-Aug-27 02:33N 37°35' E 025°00'7 7.4
2015-Aug-27 01:34N 37°36' E 024°51'50 7.2
2015-Aug-26 18:33N 37°38' E 023°48'8 8.1
2015-Aug-26 17:33N 37°43' E 023°41'9 8.5
2015-Aug-26 16:34N 37°51' E 023°36'6 6.2
2015-Aug-26 15:34N 37°57' E 023°35'0 0.0
2015-Aug-26 14:33N 37°57' E 023°35'0 0.0
2015-Aug-26 13:34N 37°57' E 023°35'0 0.0
2015-Aug-26 12:33N 37°57' E 023°35'0 0.0
2015-Aug-26 11:34N 37°57' E 023°35'0 0.0
2015-Aug-26 10:33N 37°57' E 023°35'0 0.0
2015-Aug-26 09:33N 37°57' E 023°35'0 0.0
2015-Aug-26 08:33N 37°57' E 023°35'0 0.0
2015-Aug-26 07:34N 37°57' E 023°35'0 0.0
2015-Aug-26 06:33N 37°57' E 023°35'0 0.0
2015-Aug-26 05:33N 37°57' E 023°35'0 0.0
2015-Aug-26 04:34N 37°57' E 023°35'0 0.0
2015-Aug-26 03:33N 37°57' E 023°35'3 2.7
2015-Aug-26 02:34N 37°55' E 023°36'8 8.1
2015-Aug-26 01:34N 37°48' E 023°41'8 8.2
2015-Aug-26 00:34N 37°40' E 023°45'17 5.4
2015-Aug-25 21:27N 37°39' E 024°06'32 6.6
2015-Aug-25 16:33N 37°34' E 024°47'7 7.1
2015-Aug-25 15:32N 37°31' E 024°55'5 5.4
2015-Aug-25 14:33N 37°26' E 024°56'0 0.0
2015-Aug-25 13:33N 37°26' E 024°56'0 0.0
2015-Aug-25 12:33N 37°26' E 024°56'0 0.0
2015-Aug-25 11:33N 37°26' E 024°56'0 0.0
2015-Aug-25 10:33N 37°26' E 024°56'0 0.0
2015-Aug-25 09:33N 37°26' E 024°56'0 0.0
2015-Aug-25 08:33N 37°26' E 024°56'0 0.0
2015-Aug-25 07:33N 37°26' E 024°56'0 0.0
2015-Aug-25 06:33N 37°26' E 024°56'0 0.0
2015-Aug-25 05:33N 37°26' E 024°56'0 0.0
2015-Aug-25 04:33N 37°26' E 024°56'0 0.0
2015-Aug-25 03:33N 37°26' E 024°56'0 0.0
2015-Aug-25 02:33N 37°26' E 024°56'0 0.0
2015-Aug-25 01:33N 37°26' E 024°56'0 0.0
2015-Aug-25 00:33N 37°26' E 024°56'0 0.0
2015-Aug-24 23:33N 37°26' E 024°56'0 0.0
2015-Aug-24 22:32N 37°26' E 024°56'0 0.0
2015-Aug-24 21:33N 37°26' E 024°56'0 0.0
2015-Aug-24 20:33N 37°26' E 024°56'0 0.0
2015-Aug-24 19:33N 37°26' E 024°56'0 0.0
2015-Aug-24 18:33N 37°26' E 024°56'0 0.0
2015-Aug-24 17:33N 37°26' E 024°56'0 0.0
2015-Aug-24 16:32N 37°26' E 024°56'0 0.0
2015-Aug-24 15:33N 37°26' E 024°56'0 0.0
2015-Aug-24 14:32N 37°26' E 024°56'0 0.0
2015-Aug-24 13:33N 37°26' E 024°56'0 0.0
2015-Aug-24 12:33N 37°26' E 024°56'0 0.0
2015-Aug-24 11:33N 37°26' E 024°56'0 0.0
2015-Aug-24 10:33N 37°26' E 024°56'0 0.0
2015-Aug-24 09:33N 37°26' E 024°56'0 0.0
2015-Aug-24 08:33N 37°26' E 024°56'0 0.0
2015-Aug-24 07:33N 37°26' E 024°56'0 0.0
2015-Aug-24 06:33N 37°26' E 024°56'0 0.0
2015-Aug-24 05:33N 37°26' E 024°56'0 0.0
2015-Aug-24 04:33N 37°26' E 024°56'0 0.0
2015-Aug-24 03:33N 37°26' E 024°56'0 0.0
2015-Aug-24 02:33N 37°26' E 024°56'0 0.0
2015-Aug-24 01:33N 37°26' E 024°56'0 0.0
2015-Aug-24 00:33N 37°26' E 024°56'0 0.0
2015-Aug-23 23:33N 37°26' E 024°56'0 0.0
2015-Aug-23 22:33N 37°26' E 024°56'0 0.0
2015-Aug-23 21:33N 37°26' E 024°56'0 0.0
2015-Aug-23 20:33N 37°26' E 024°56'0 0.0
2015-Aug-23 19:33N 37°26' E 024°56'0 0.0
2015-Aug-23 18:33N 37°26' E 024°56'0 0.0
2015-Aug-23 17:33N 37°26' E 024°56'0 0.0
2015-Aug-23 16:33N 37°26' E 024°56'0 0.0
2015-Aug-23 15:33N 37°26' E 024°56'0 0.0
2015-Aug-23 14:33N 37°26' E 024°56'0 0.0
2015-Aug-23 13:33N 37°26' E 024°56'0 0.0
2015-Aug-23 12:33N 37°26' E 024°56'0 0.0
2015-Aug-23 11:33N 37°26' E 024°56'0 0.0
2015-Aug-23 10:33N 37°26' E 024°56'0 0.0
2015-Aug-23 09:33N 37°26' E 024°56'0 0.0
2015-Aug-23 08:33N 37°26' E 024°56'0 0.0
2015-Aug-23 07:33N 37°26' E 024°56'2 1.7
2015-Aug-23 06:33N 37°25' E 024°58'6 6.1
2015-Aug-23 05:33N 37°23' E 025°05'7 7.5
2015-Aug-23 04:33N 37°21' E 025°15'8 8.0
2015-Aug-23 03:33N 37°23' E 025°24'8 7.6
2015-Aug-23 02:33N 37°27' E 025°33'6 6.0
2015-Aug-23 01:33N 37°28' E 025°40'7 6.7
2015-Aug-23 00:33N 37°29' E 025°49'  
Track history (hours):
 
Tides and Currents Weather Stations Pressure Air Temp Water Temp Dewpoint Dewpoint Depression Visibility Wind Speed Wind Dir Waves Ship Positions

Agios Georgios I

Last reported at 2015-Aug-28 12:33 UTC. Time now 2015-Aug-30 19:58 UTC.
Position N 37°55' E 026°29'.

Length 59 m; draft 5 m.

Type: Ship (hazmat cat B). MMSI: 239912000.

Date/timePositionNaut miles runAvg speedWind from/ knotsBaromVisibWave heightAir tempDewpointWater temp
2015-Aug-28 12:33N 37°55' E 026°29'9 8.4
2015-Aug-28 11:32N 37°50' E 026°38'32 3.5
2015-Aug-28 02:24N 37°31' E 026°05'7 7.9
2015-Aug-28 01:33N 37°30' E 025°57'7 7.4
2015-Aug-28 00:33N 37°29' E 025°48'8 7.9
2015-Aug-27 23:34N 37°27' E 025°38'8 7.6
2015-Aug-27 22:34N 37°25' E 025°29'8 7.5
2015-Aug-27 21:34N 37°23' E 025°20'7 7.2
2015-Aug-27 20:33N 37°22' E 025°11'8 7.6
2015-Aug-27 19:33N 37°25' E 025°02'5 5.0
2015-Aug-27 18:33N 37°26' E 024°56'0 0.0
2015-Aug-27 17:33N 37°26' E 024°56'0 0.0
2015-Aug-27 16:33N 37°26' E 024°56'0 0.0
2015-Aug-27 15:34N 37°26' E 024°56'0 0.0
2015-Aug-27 14:34N 37°26' E 024°56'0 0.0
2015-Aug-27 13:33N 37°26' E 024°56'0 0.0
2015-Aug-27 12:33N 37°26' E 024°56'0 0.0
2015-Aug-27 11:33N 37°26' E 024°56'0 0.0
2015-Aug-27 10:33N 37°26' E 024°56'0 0.0
2015-Aug-27 09:33N 37°26' E 024°56'3 2.5
2015-Aug-27 08:33N 37°27' E 024°59'9 8.9
2015-Aug-27 07:33N 37°32' E 025°08'1 0.7
2015-Aug-27 06:33N 37°32' E 025°09'0 0.0
2015-Aug-27 05:34N 37°32' E 025°09'0 0.0
2015-Aug-27 04:33N 37°32' E 025°09'1 0.5
2015-Aug-27 03:33N 37°32' E 025°09'7 7.3
2015-Aug-27 02:33N 37°35' E 025°00'7 7.4
2015-Aug-27 01:34N 37°36' E 024°51'50 7.2
2015-Aug-26 18:33N 37°38' E 023°48'8 8.1
2015-Aug-26 17:33N 37°43' E 023°41'9 8.5
2015-Aug-26 16:34N 37°51' E 023°36'6 6.2
2015-Aug-26 15:34N 37°57' E 023°35'0 0.0
2015-Aug-26 14:33N 37°57' E 023°35'0 0.0
2015-Aug-26 13:34N 37°57' E 023°35'0 0.0
2015-Aug-26 12:33N 37°57' E 023°35'0 0.0
2015-Aug-26 11:34N 37°57' E 023°35'0 0.0
2015-Aug-26 10:33N 37°57' E 023°35'0 0.0
2015-Aug-26 09:33N 37°57' E 023°35'0 0.0
2015-Aug-26 08:33N 37°57' E 023°35'0 0.0
2015-Aug-26 07:34N 37°57' E 023°35'0 0.0
2015-Aug-26 06:33N 37°57' E 023°35'0 0.0
2015-Aug-26 05:33N 37°57' E 023°35'0 0.0
2015-Aug-26 04:34N 37°57' E 023°35'0 0.0
2015-Aug-26 03:33N 37°57' E 023°35'3 2.7
2015-Aug-26 02:34N 37°55' E 023°36'8 8.1
2015-Aug-26 01:34N 37°48' E 023°41'8 8.2
2015-Aug-26 00:34N 37°40' E 023°45'17 5.4
2015-Aug-25 21:27N 37°39' E 024°06'32 6.6
2015-Aug-25 16:33N 37°34' E 024°47'7 7.1
2015-Aug-25 15:32N 37°31' E 024°55'5 5.4
2015-Aug-25 14:33N 37°26' E 024°56'0 0.0
2015-Aug-25 13:33N 37°26' E 024°56'0 0.0
2015-Aug-25 12:33N 37°26' E 024°56'0 0.0
2015-Aug-25 11:33N 37°26' E 024°56'0 0.0
2015-Aug-25 10:33N 37°26' E 024°56'0 0.0
2015-Aug-25 09:33N 37°26' E 024°56'0 0.0
2015-Aug-25 08:33N 37°26' E 024°56'0 0.0
2015-Aug-25 07:33N 37°26' E 024°56'0 0.0
2015-Aug-25 06:33N 37°26' E 024°56'0 0.0
2015-Aug-25 05:33N 37°26' E 024°56'0 0.0
2015-Aug-25 04:33N 37°26' E 024°56'0 0.0
2015-Aug-25 03:33N 37°26' E 024°56'0 0.0
2015-Aug-25 02:33N 37°26' E 024°56'0 0.0
2015-Aug-25 01:33N 37°26' E 024°56'0 0.0
2015-Aug-25 00:33N 37°26' E 024°56'0 0.0
2015-Aug-24 23:33N 37°26' E 024°56'0 0.0
2015-Aug-24 22:32N 37°26' E 024°56'0 0.0
2015-Aug-24 21:33N 37°26' E 024°56'0 0.0
2015-Aug-24 20:33N 37°26' E 024°56'0 0.0
2015-Aug-24 19:33N 37°26' E 024°56'0 0.0
2015-Aug-24 18:33N 37°26' E 024°56'0 0.0
2015-Aug-24 17:33N 37°26' E 024°56'0 0.0
2015-Aug-24 16:32N 37°26' E 024°56'0 0.0
2015-Aug-24 15:33N 37°26' E 024°56'0 0.0
2015-Aug-24 14:32N 37°26' E 024°56'0 0.0
2015-Aug-24 13:33N 37°26' E 024°56'0 0.0
2015-Aug-24 12:33N 37°26' E 024°56'0 0.0
2015-Aug-24 11:33N 37°26' E 024°56'0 0.0
2015-Aug-24 10:33N 37°26' E 024°56'0 0.0
2015-Aug-24 09:33N 37°26' E 024°56'0 0.0
2015-Aug-24 08:33N 37°26' E 024°56'0 0.0
2015-Aug-24 07:33N 37°26' E 024°56'0 0.0
2015-Aug-24 06:33N 37°26' E 024°56'0 0.0
2015-Aug-24 05:33N 37°26' E 024°56'0 0.0
2015-Aug-24 04:33N 37°26' E 024°56'0 0.0
2015-Aug-24 03:33N 37°26' E 024°56'0 0.0
2015-Aug-24 02:33N 37°26' E 024°56'0 0.0
2015-Aug-24 01:33N 37°26' E 024°56'0 0.0
2015-Aug-24 00:33N 37°26' E 024°56'0 0.0
2015-Aug-23 23:33N 37°26' E 024°56'0 0.0
2015-Aug-23 22:33N 37°26' E 024°56'0 0.0
2015-Aug-23 21:33N 37°26' E 024°56'0 0.0
2015-Aug-23 20:33N 37°26' E 024°56'0 0.0
2015-Aug-23 19:33N 37°26' E 024°56'0 0.0
2015-Aug-23 18:33N 37°26' E 024°56'0 0.0
2015-Aug-23 17:33N 37°26' E 024°56'0 0.0
2015-Aug-23 16:33N 37°26' E 024°56'0 0.0
2015-Aug-23 15:33N 37°26' E 024°56'0 0.0
2015-Aug-23 14:33N 37°26' E 024°56'0 0.0
2015-Aug-23 13:33N 37°26' E 024°56'0 0.0
2015-Aug-23 12:33N 37°26' E 024°56'0 0.0
2015-Aug-23 11:33N 37°26' E 024°56'0 0.0
2015-Aug-23 10:33N 37°26' E 024°56'0 0.0
2015-Aug-23 09:33N 37°26' E 024°56'0 0.0
2015-Aug-23 08:33N 37°26' E 024°56'0 0.0
2015-Aug-23 07:33N 37°26' E 024°56'2 1.7
2015-Aug-23 06:33N 37°25' E 024°58'6 6.1
2015-Aug-23 05:33N 37°23' E 025°05'7 7.5
2015-Aug-23 04:33N 37°21' E 025°15'8 8.0
2015-Aug-23 03:33N 37°23' E 025°24'8 7.6
2015-Aug-23 02:33N 37°27' E 025°33'6 6.0
2015-Aug-23 01:33N 37°28' E 025°40'7 6.7
2015-Aug-23 00:33N 37°29' E 025°49'  

Dump ship's entire track history